createdAt,value
2022-09-05T00:00:25.001Z,3.80
2022-09-05T00:03:17.232Z,3.43
2022-09-05T00:06:07.725Z,4.40
2022-09-05T00:09:02.010Z,3.60
2022-09-05T00:12:00.759Z,3.40
2022-09-05T00:15:23.395Z,3.97
2022-09-05T00:23:06.158Z,3.90
2022-09-05T00:24:28.184Z,3.50
2022-09-05T00:25:49.747Z,3.80
2022-09-05T00:28:56.302Z,3.60
2022-09-05T00:32:05.724Z,4.17
2022-09-05T00:35:07.632Z,3.57
2022-09-05T00:37:46.687Z,3.93
2022-09-05T00:40:29.541Z,4.53
2022-09-05T00:43:27.589Z,4.73
2022-09-05T00:46:14.657Z,4.23
2022-09-05T00:48:54.757Z,4.03
2022-09-05T00:51:38.365Z,3.87
2022-09-05T00:54:41.351Z,4.37
2022-09-05T00:57:58.964Z,3.90
2022-09-05T01:00:33.791Z,3.40
2022-09-05T01:03:34.771Z,4.00
2022-09-05T01:06:48.050Z,3.60
2022-09-05T01:10:04.121Z,3.70
2022-09-05T01:12:50.358Z,3.27
2022-09-05T01:15:37.243Z,3.30
2022-09-05T01:18:32.737Z,3.50
2022-09-05T01:21:37.741Z,3.80
2022-09-05T01:25:05.796Z,3.37
2022-09-05T01:29:15.493Z,3.60
2022-09-05T01:31:25.884Z,3.70
2022-09-05T01:34:34.610Z,3.93
2022-09-05T01:37:33.313Z,3.30
2022-09-05T01:41:17.728Z,3.87
2022-09-05T01:44:20.184Z,3.60
2022-09-05T01:47:30.988Z,4.03
2022-09-05T01:50:32.390Z,4.13
2022-09-05T01:53:36.262Z,3.97
2022-09-05T01:56:38.645Z,3.57
2022-09-05T01:59:38.999Z,5.00
2022-09-05T02:03:01.462Z,3.53
2022-09-05T02:06:06.346Z,3.50
2022-09-05T02:09:23.194Z,3.63
2022-09-05T02:12:04.204Z,3.23
2022-09-05T02:14:45.725Z,3.53
2022-09-05T02:17:51.055Z,4.80
2022-09-05T02:20:34.213Z,3.87
2022-09-05T02:23:40.784Z,3.90
2022-09-05T02:26:21.426Z,4.10
2022-09-05T02:29:05.366Z,4.40
2022-09-05T02:31:53.091Z,3.83
2022-09-05T02:34:43.833Z,4.27
2022-09-05T02:40:12.567Z,4.50
2022-09-05T02:45:15.328Z,3.53
2022-09-05T02:45:20.264Z,4.23
2022-09-05T02:48:15.005Z,3.83
2022-09-05T02:55:02.035Z,4.10
2022-09-05T02:57:33.109Z,3.77
2022-09-05T02:58:05.899Z,4.70
2022-09-05T03:00:36.788Z,4.70
2022-09-05T03:03:39.259Z,4.47
2022-09-05T03:06:50.628Z,4.13
2022-09-05T03:10:05.693Z,4.60
2022-09-05T03:13:02.078Z,4.50
2022-09-05T03:16:05.164Z,4.07
2022-09-05T03:19:02.530Z,4.00
2022-09-05T03:22:22.783Z,4.70
2022-09-05T03:25:35.037Z,3.73
2022-09-05T03:28:37.509Z,3.70
2022-09-05T03:31:45.236Z,4.13
2022-09-05T03:34:39.808Z,3.93
2022-09-05T03:38:12.145Z,3.53
2022-09-05T03:41:05.827Z,3.70
2022-09-05T03:44:13.733Z,3.50
2022-09-05T03:46:51.609Z,3.90
2022-09-05T03:54:47.335Z,3.70
2022-09-05T03:57:08.544Z,4.27
2022-09-05T03:57:28.080Z,4.17
2022-09-05T03:59:53.584Z,4.00
2022-09-05T04:04:30.419Z,4.40
2022-09-05T04:08:14.025Z,3.43
2022-09-05T04:09:43.318Z,3.90
2022-09-05T04:12:23.224Z,4.23
2022-09-05T04:15:27.055Z,4.50
2022-09-05T04:18:33.055Z,4.47
2022-09-05T04:21:18.312Z,4.17
2022-09-05T04:24:10.346Z,3.93
2022-09-05T04:27:39.111Z,3.90
2022-09-05T04:30:40.519Z,4.40
2022-09-05T04:33:22.261Z,4.50
2022-09-05T04:36:36.739Z,3.80
2022-09-05T04:39:17.627Z,5.10
2022-09-05T04:42:21.919Z,4.60
2022-09-05T04:45:08.342Z,3.77
2022-09-05T04:47:52.334Z,4.30
2022-09-05T04:50:37.209Z,4.77
2022-09-05T04:53:54.566Z,4.10
2022-09-05T04:56:38.494Z,4.13
2022-09-05T05:00:54.250Z,5.10
2022-09-05T05:06:15.484Z,4.63
2022-09-05T05:06:30.035Z,3.90
2022-09-05T05:09:23.007Z,4.10
2022-09-05T05:17:59.441Z,4.80
2022-09-05T05:17:59.704Z,5.33
2022-09-05T05:18:38.700Z,4.70
2022-09-05T05:21:23.590Z,5.53
2022-09-05T05:24:17.228Z,4.47
2022-09-05T05:27:19.901Z,4.50
2022-09-05T05:30:04.553Z,3.90
2022-09-05T05:32:52.413Z,4.87
2022-09-05T05:35:33.390Z,3.60
2022-09-05T05:38:17.879Z,4.27
2022-09-05T05:41:13.051Z,4.63
2022-09-05T05:43:49.901Z,5.20
2022-09-05T05:46:38.187Z,4.30
2022-09-05T05:49:51.068Z,5.10
2022-09-05T05:53:01.442Z,3.83
2022-09-05T05:56:25.092Z,4.23
2022-09-05T05:59:07.762Z,4.13
2022-09-05T06:02:27.853Z,4.63
2022-09-05T06:05:27.782Z,4.60
2022-09-05T06:12:24.687Z,4.70
2022-09-05T06:15:01.764Z,5.10
2022-09-05T06:15:28.099Z,4.80
2022-09-05T06:18:51.536Z,4.23
2022-09-05T06:22:08.806Z,4.57
2022-09-05T06:25:28.901Z,4.87
2022-09-05T06:28:20.328Z,3.50
2022-09-05T06:31:30.514Z,4.00
2022-09-05T06:34:32.563Z,3.57
2022-09-05T06:37:20.078Z,4.10
2022-09-05T06:40:33.472Z,3.73
2022-09-05T06:43:31.383Z,3.87
2022-09-05T06:46:55.349Z,3.80
2022-09-05T06:49:30.341Z,3.60
2022-09-05T06:53:19.722Z,3.50
2022-09-05T06:56:03.926Z,3.40
2022-09-05T06:58:58.385Z,3.90
2022-09-05T07:02:08.641Z,3.93
2022-09-05T07:05:38.990Z,2.87
2022-09-05T07:08:52.022Z,3.20
2022-09-05T07:11:42.190Z,3.20
2022-09-05T07:14:29.041Z,4.00
2022-09-05T07:18:08.930Z,3.20
2022-09-05T07:21:16.375Z,4.70
2022-09-05T07:24:10.136Z,3.60
2022-09-05T07:26:53.973Z,3.40
2022-09-05T07:29:36.227Z,3.87
2022-09-05T07:32:20.189Z,3.20
2022-09-05T07:35:01.714Z,2.93
2022-09-05T07:37:44.583Z,2.73
2022-09-05T07:40:26.393Z,3.90
2022-09-05T07:43:18.851Z,3.20
2022-09-05T07:46:11.873Z,2.47
2022-09-05T07:48:57.426Z,2.70
2022-09-05T07:56:46.154Z,2.33
2022-09-05T07:56:59.014Z,2.13
2022-09-05T07:57:51.743Z,2.80
2022-09-05T08:00:30.248Z,2.50
2022-09-05T08:03:12.851Z,2.40
2022-09-05T08:05:54.089Z,2.10
2022-09-05T08:10:05.426Z,2.83
2022-09-05T08:13:23.884Z,2.07
2022-09-05T08:16:02.903Z,2.70
2022-09-05T08:18:54.324Z,2.50
2022-09-05T08:21:51.690Z,2.30
2022-09-05T08:25:05.666Z,2.30
2022-09-05T08:28:20.802Z,2.10
2022-09-05T08:31:06.799Z,2.30
2022-09-05T08:33:43.587Z,1.93
2022-09-05T08:36:36.363Z,2.00
2022-09-05T08:39:15.608Z,2.20
2022-09-05T08:42:49.496Z,1.80
2022-09-05T08:46:41.809Z,2.17
2022-09-05T08:49:36.896Z,1.90
2022-09-05T08:52:51.506Z,1.90
2022-09-05T08:55:54.911Z,1.87
2022-09-05T08:58:54.093Z,1.70
2022-09-05T09:02:46.025Z,1.80
2022-09-05T09:06:11.827Z,1.90
2022-09-05T09:08:54.453Z,1.67
2022-09-05T09:11:54.153Z,1.90
2022-09-05T09:14:58.091Z,1.80
2022-09-05T09:17:45.417Z,1.80
2022-09-05T09:20:59.069Z,1.70
2022-09-05T09:23:46.935Z,1.60
2022-09-05T09:26:29.309Z,1.80
2022-09-05T09:29:10.531Z,1.90
2022-09-05T09:32:11.278Z,1.60
2022-09-05T09:35:12.633Z,1.97
2022-09-05T09:38:32.246Z,1.53
2022-09-05T09:41:55.394Z,1.40
2022-09-05T09:45:32.003Z,1.70
2022-09-05T09:48:09.976Z,1.97
2022-09-05T09:51:03.954Z,2.03
2022-09-05T09:54:03.756Z,1.83
2022-09-05T09:57:12.404Z,2.40
2022-09-05T10:00:21.186Z,2.00
2022-09-05T10:10:35.548Z,1.87
2022-09-05T10:10:52.403Z,1.60
2022-09-05T10:10:59.081Z,1.80
2022-09-05T10:14:22.599Z,1.40
2022-09-05T10:17:34.597Z,1.90
2022-09-05T10:20:29.595Z,1.70
2022-09-05T10:23:54.007Z,1.53
2022-09-05T10:26:50.518Z,1.50
2022-09-05T10:30:06.879Z,1.87
2022-09-05T10:35:05.002Z,1.80
2022-09-05T10:36:00.806Z,1.40
2022-09-05T10:38:45.394Z,1.50
2022-09-05T10:41:39.498Z,1.47
2022-09-05T10:44:15.992Z,1.50
2022-09-05T10:47:11.279Z,1.73
2022-09-05T10:49:50.896Z,1.70
2022-09-05T10:52:52.760Z,1.53
2022-09-05T10:55:56.065Z,1.30
2022-09-05T11:02:24.628Z,1.50
2022-09-05T11:02:27.009Z,1.20
2022-09-05T11:05:16.130Z,1.30
2022-09-05T11:08:21.739Z,1.20
2022-09-05T11:11:32.539Z,1.20
2022-09-05T11:14:31.873Z,1.17
2022-09-05T11:17:31.928Z,1.30
2022-09-05T11:20:39.058Z,1.20
2022-09-05T11:23:40.043Z,1.30
2022-09-05T11:26:51.444Z,1.27
2022-09-05T11:30:30.144Z,1.50
2022-09-05T11:39:53.153Z,1.30
2022-09-05T11:39:56.070Z,1.60
2022-09-05T11:40:43.599Z,1.10
2022-09-05T11:43:34.982Z,1.10
2022-09-05T11:47:27.039Z,1.30
2022-09-05T11:50:39.003Z,1.30
2022-09-05T11:53:17.045Z,1.10
2022-09-05T11:56:19.210Z,1.40
2022-09-05T11:59:47.748Z,1.13
2022-09-05T12:03:58.145Z,1.17
2022-09-05T12:06:54.881Z,1.50
2022-09-05T12:09:46.306Z,1.17
2022-09-05T12:12:43.371Z,1.40
2022-09-05T12:15:33.971Z,1.20
2022-09-05T12:19:24.017Z,1.40
2022-09-05T12:22:23.956Z,1.27
2022-09-05T12:25:26.109Z,1.40
2022-09-05T12:28:46.661Z,1.30
2022-09-05T12:32:36.725Z,1.30
2022-09-05T12:36:07.465Z,1.20
2022-09-05T12:40:55.442Z,1.37
2022-09-05T12:41:43.000Z,1.10
2022-09-05T12:44:42.741Z,1.50
2022-09-05T12:47:19.293Z,1.40
2022-09-05T12:50:14.423Z,1.40
2022-09-05T12:53:06.865Z,1.30
2022-09-05T12:56:44.320Z,1.10
2022-09-05T13:03:04.928Z,1.40
2022-09-05T13:03:07.542Z,1.50
2022-09-05T13:05:12.462Z,1.27
2022-09-05T13:07:57.010Z,1.40
2022-09-05T13:14:47.604Z,1.30
2022-09-05T13:14:54.757Z,1.30
2022-09-05T13:16:54.084Z,1.30
2022-09-05T13:19:45.756Z,1.40
2022-09-05T13:22:24.328Z,1.30
2022-09-05T13:25:09.067Z,1.57
2022-09-05T13:27:56.855Z,1.40
2022-09-05T13:33:22.670Z,1.47
2022-09-05T13:38:15.622Z,1.33
2022-09-05T13:38:15.895Z,1.40
2022-09-05T13:40:17.502Z,1.00
2022-09-05T13:43:10.660Z,1.30
2022-09-05T13:46:07.944Z,1.20
2022-09-05T13:52:05.121Z,1.30
2022-09-05T13:54:51.079Z,1.17
2022-09-05T13:57:40.802Z,1.20
2022-09-05T14:00:34.984Z,1.30
2022-09-05T14:03:40.342Z,1.47
2022-09-05T14:10:22.290Z,1.20
2022-09-05T14:13:15.377Z,1.40
2022-09-05T14:16:05.586Z,1.40
2022-09-05T14:19:06.723Z,1.27
2022-09-05T14:21:44.071Z,1.30
2022-09-05T14:24:27.586Z,1.50
2022-09-05T14:27:17.092Z,1.30
2022-09-05T14:31:30.244Z,1.10
2022-09-05T14:37:49.519Z,1.40
2022-09-05T14:37:58.458Z,1.50
2022-09-05T14:40:29.225Z,1.40
2022-09-05T14:43:56.879Z,1.30
2022-09-05T14:47:02.650Z,1.20
2022-09-05T14:50:27.553Z,1.30
2022-09-05T14:57:23.271Z,1.30
2022-09-05T15:02:53.945Z,1.20
2022-09-05T15:03:01.006Z,1.30
2022-09-05T15:05:28.615Z,1.20
2022-09-05T15:10:57.888Z,1.30
2022-09-05T15:12:23.539Z,1.40
2022-09-05T15:14:29.217Z,1.10
2022-09-05T15:17:05.986Z,1.17
2022-09-05T15:20:04.995Z,1.40
2022-09-05T15:22:44.753Z,1.40
2022-09-05T15:25:26.902Z,1.13
2022-09-05T15:28:08.542Z,1.40
2022-09-05T15:31:00.425Z,1.33
2022-09-05T15:33:37.252Z,1.40
2022-09-05T15:36:14.222Z,1.50
2022-09-05T15:38:55.652Z,1.30
2022-09-05T15:41:32.065Z,1.20
2022-09-05T15:44:14.832Z,1.50
2022-09-05T15:47:03.749Z,1.50
2022-09-05T15:49:59.804Z,1.30
2022-09-05T15:52:45.627Z,1.23
2022-09-05T15:55:24.542Z,1.40
2022-09-05T15:58:06.071Z,1.30
2022-09-05T16:00:51.295Z,1.37
2022-09-05T16:06:10.725Z,1.53
2022-09-05T16:10:33.840Z,1.53
2022-09-05T16:10:42.749Z,1.30
2022-09-05T16:12:45.178Z,1.30
2022-09-05T16:16:46.118Z,1.50
2022-09-05T16:23:12.960Z,1.33
2022-09-05T16:23:35.081Z,1.40
2022-09-05T16:24:59.597Z,1.40
2022-09-05T16:28:07.210Z,1.40
2022-09-05T16:30:42.101Z,1.90
2022-09-05T16:33:26.264Z,1.67
2022-09-05T16:36:27.132Z,1.53
2022-09-05T16:39:16.118Z,1.90
2022-09-05T16:42:01.315Z,1.50
2022-09-05T16:44:49.618Z,2.03
2022-09-05T16:47:55.236Z,2.17
2022-09-05T16:50:49.257Z,1.90
2022-09-05T16:53:30.152Z,1.90
2022-09-05T16:56:23.581Z,2.10
2022-09-05T16:59:21.293Z,2.00
2022-09-05T17:02:28.153Z,2.37
2022-09-05T17:05:43.633Z,2.17
2022-09-05T17:08:27.958Z,2.30
2022-09-05T17:11:18.405Z,2.33
2022-09-05T17:14:16.953Z,2.10
2022-09-05T17:16:56.343Z,2.33
2022-09-05T17:19:37.491Z,1.87
2022-09-05T17:25:16.865Z,1.87
2022-09-05T17:29:31.265Z,1.93
2022-09-05T17:29:36.339Z,1.83
2022-09-05T17:31:59.681Z,2.00
2022-09-05T17:35:16.800Z,2.10
2022-09-05T17:38:24.266Z,2.20
2022-09-05T17:41:05.460Z,2.73
2022-09-05T17:43:41.397Z,2.13
2022-09-05T17:46:28.933Z,2.80
2022-09-05T17:49:19.372Z,2.43
2022-09-05T17:51:55.331Z,3.20
2022-09-05T17:54:33.545Z,3.10
2022-09-05T17:57:27.325Z,2.67
2022-09-05T18:00:50.235Z,3.33
2022-09-05T18:03:37.538Z,2.73
2022-09-05T18:06:15.379Z,2.60
2022-09-05T18:08:53.033Z,1.80
2022-09-05T18:11:27.983Z,2.80
2022-09-05T18:14:24.821Z,1.90
2022-09-05T18:17:36.730Z,2.47
2022-09-05T18:20:06.434Z,2.60
2022-09-05T18:23:38.876Z,2.30
2022-09-05T18:26:14.201Z,2.43
2022-09-05T18:29:00.827Z,2.50
2022-09-05T18:31:40.831Z,2.93
2022-09-05T18:34:19.809Z,2.47
2022-09-05T18:36:57.445Z,2.90
2022-09-05T18:39:38.519Z,2.80
2022-09-05T18:42:33.069Z,3.03
2022-09-05T18:45:17.108Z,2.63
2022-09-05T18:48:00.441Z,2.10
2022-09-05T18:50:42.315Z,2.10
2022-09-05T18:53:30.812Z,2.10
2022-09-05T18:56:12.582Z,2.20
2022-09-05T18:59:09.868Z,2.90
2022-09-05T19:02:41.115Z,2.53
2022-09-05T19:05:43.167Z,2.40
2022-09-05T19:08:47.091Z,2.83
2022-09-05T19:11:35.922Z,2.57
2022-09-05T19:14:29.142Z,2.23
2022-09-05T19:17:36.125Z,2.90
2022-09-05T19:20:32.420Z,3.20
2022-09-05T19:23:13.511Z,3.40
2022-09-05T19:25:57.421Z,2.90
2022-09-05T19:36:42.484Z,3.33
2022-09-05T19:36:53.753Z,3.67
2022-09-05T19:37:03.125Z,4.13
2022-09-05T19:37:44.713Z,7.20
2022-09-05T19:47:13.630Z,5.67
2022-09-05T19:47:36.175Z,4.60
2022-09-05T19:47:36.819Z,4.40
2022-09-05T19:49:28.078Z,4.40
2022-09-05T19:52:16.359Z,4.10
2022-09-05T19:54:51.727Z,3.90
2022-09-05T19:57:28.378Z,4.27
2022-09-05T20:00:05.113Z,3.93
2022-09-05T20:02:51.950Z,4.20
2022-09-05T20:05:27.314Z,4.10
2022-09-05T20:08:06.335Z,3.83
2022-09-05T20:10:41.606Z,4.10
2022-09-05T20:13:24.763Z,4.27
2022-09-05T20:16:03.510Z,5.40
2022-09-05T20:18:44.202Z,5.10
2022-09-05T20:21:29.578Z,5.20
2022-09-05T20:24:04.599Z,5.23
2022-09-05T20:26:39.680Z,5.40
2022-09-05T20:30:00.903Z,5.00
2022-09-05T20:32:44.300Z,5.63
2022-09-05T20:39:38.223Z,4.53
2022-09-05T20:43:17.035Z,5.00
2022-09-05T20:43:26.648Z,4.80
2022-09-05T20:44:50.322Z,6.23
2022-09-05T20:54:12.984Z,7.00
2022-09-05T20:54:13.919Z,6.57
2022-09-05T20:54:32.249Z,7.03
2022-09-05T20:56:48.246Z,6.20
2022-09-05T20:59:37.928Z,6.53
2022-09-05T21:02:28.654Z,6.87
2022-09-05T21:05:20.698Z,6.33
2022-09-05T21:08:34.761Z,5.63
2022-09-05T21:11:09.800Z,6.60
2022-09-05T21:13:53.209Z,6.77
2022-09-05T21:16:32.420Z,6.27
2022-09-05T21:19:30.155Z,5.70
2022-09-05T21:22:10.162Z,5.97
2022-09-05T21:24:46.566Z,5.80
2022-09-05T21:27:24.904Z,6.67
2022-09-05T21:30:29.419Z,5.40
2022-09-05T21:33:45.892Z,6.73
2022-09-05T21:36:22.569Z,6.23
2022-09-05T21:38:57.574Z,6.30
2022-09-05T21:41:32.493Z,5.97
2022-09-05T21:47:33.819Z,5.80
2022-09-05T21:47:43.209Z,6.67
2022-09-05T21:49:59.100Z,6.20
2022-09-05T21:52:40.295Z,5.77
2022-09-05T21:59:16.404Z,5.47
2022-09-05T21:59:19.389Z,6.00
2022-09-05T22:01:50.741Z,6.33
2022-09-05T22:04:25.379Z,5.70
2022-09-05T22:07:02.735Z,5.60
2022-09-05T22:09:37.640Z,5.97
2022-09-05T22:12:29.848Z,5.43
2022-09-05T22:15:27.778Z,5.90
2022-09-05T22:18:17.510Z,5.83
2022-09-05T22:21:31.834Z,5.40
2022-09-05T22:23:53.987Z,4.87
2022-09-05T22:26:37.792Z,5.20
2022-09-05T22:29:18.281Z,5.77
2022-09-05T22:31:54.706Z,6.00
2022-09-05T22:34:29.631Z,5.60
2022-09-05T22:37:04.623Z,5.87
2022-09-05T22:39:39.707Z,6.63
2022-09-05T22:42:15.169Z,6.10
2022-09-05T22:44:50.190Z,5.60
2022-09-05T22:47:29.626Z,4.93
2022-09-05T22:50:05.124Z,5.70
2022-09-05T22:52:41.103Z,5.20
2022-09-05T22:55:16.391Z,4.97
2022-09-05T22:57:51.348Z,5.13
2022-09-05T23:00:26.286Z,5.53
2022-09-05T23:03:04.040Z,5.03
2022-09-05T23:05:38.929Z,4.70
2022-09-05T23:08:14.499Z,5.03
2022-09-05T23:10:49.416Z,5.20
2022-09-05T23:13:24.970Z,5.27
2022-09-05T23:16:00.138Z,5.80
2022-09-05T23:18:35.430Z,5.60
2022-09-05T23:21:12.722Z,5.17
2022-09-05T23:23:47.721Z,5.20
2022-09-05T23:26:22.610Z,5.40
2022-09-05T23:28:57.470Z,5.50
2022-09-05T23:31:32.445Z,5.00
2022-09-05T23:34:07.385Z,4.80
2022-09-05T23:36:42.365Z,5.17
2022-09-05T23:39:17.234Z,4.63
2022-09-05T23:41:52.467Z,4.37
2022-09-05T23:44:27.323Z,5.00
2022-09-05T23:47:02.188Z,4.10
2022-09-05T23:49:37.072Z,4.80
2022-09-05T23:52:11.912Z,4.17
2022-09-05T23:54:46.764Z,5.10
2022-09-05T23:57:23.373Z,4.83
2022-09-05T23:59:58.206Z,3.70
